首页
METAR-TAF:

METAR-TAF

机场 :

維也納國際機場

維也納, 奥地利

纬度: 48-07N, 经度: 016-34E, 海拔: 183米

当前天气观测

该预报发布于21分钟前的13:50 UTC
风速5节,风向,在东转东北东南之间变化
温度 1°C
湿度 100%
气压 1013 hPa
能見度: 4200
少量云层高于300英尺
多云层高于400英尺
轻雾

METAR: LOWW 201350Z 10005KT 060V140 4200 BR FEW003 BKN004 01/01 Q1013 TEMPO 5000 BKN005

时间: 15:11 (14:11 UTC)

预报

该预报发布于1小时和8分钟前的13:03 UTC
预报有效从20日的 13点(UTC)到 21日的 18点(UTC)
风速5节,风向
能見度: 6000
散云层高于500英尺
阴天层高于800英尺
短暂存在
从 20日的 13点(UTC)到 21日的 15点(UTC)
风速2节,风向多变
能見度: 2000
阴天层高于300英尺
小毛毛雨, 轻雾
成为
从 21日的 09点(UTC)到 21日的 11点(UTC)
风速5节,风向北转东北

TAF: LOWW 201303Z 2013/2118 10005KT 6000 SCT005 OVC008 TX05/2108Z TN02/2014Z TEMPO 2013/2115 VRB02KT 2000 -DZ BR OVC003 BECMG 2109/2111 02005KT

超过4000个机场的气象观测和天气预报(METAR&TAF报告)。

可查询的气象台以黄色和红色小点在地图上表示。

将鼠标移到小点上方,可查看气象台名称。

然后点击查看天气观测和预报。

如需切换地图:点击带黑十字的绿色按钮放大地图;点击带横线的绿色按钮缩小地图;或者点击绿色箭头查看邻近地区的地图。


METAR-TAF: